sensor_id;sensor_type;location;lat;lon;timestamp;pressure;altitude;pressure_sealevel;temperature;humidity
63903;BME280;50072;50.678;13.938;2024-01-11T00:01:08;100971.13;;;-10.33;100.00
63903;BME280;50072;50.678;13.938;2024-01-11T00:03:45;100989.78;;;-10.37;100.00
63903;BME280;50072;50.678;13.938;2024-01-11T00:06:29;100976.00;;;-10.26;100.00
63903;BME280;50072;50.678;13.938;2024-01-11T00:09:05;100975.94;;;-10.37;100.00
63903;BME280;50072;50.678;13.938;2024-01-11T00:11:35;100979.97;;;-10.41;100.00
63903;BME280;50072;50.678;13.938;2024-01-11T00:14:08;100961.94;;;-10.62;100.00
63903;BME280;50072;50.678;13.938;2024-01-11T00:16:40;100971.75;;;-10.57;100.00
63903;BME280;50072;50.678;13.938;2024-01-11T00:19:08;100969.00;;;-10.49;100.00
63903;BME280;50072;50.678;13.938;2024-01-11T00:21:35;100963.19;;;-10.46;100.00
63903;BME280;50072;50.678;13.938;2024-01-11T00:24:08;100963.56;;;-10.42;100.00
63903;BME280;50072;50.678;13.938;2024-01-11T00:26:35;100960.41;;;-10.37;100.00
63903;BME280;50072;50.678;13.938;2024-01-11T00:29:08;100970.31;;;-10.32;100.00
63903;BME280;50072;50.678;13.938;2024-01-11T00:31:34;100973.63;;;-10.23;100.00
63903;BME280;50072;50.678;13.938;2024-01-11T00:34:10;100952.78;;;-10.36;100.00
63903;BME280;50072;50.678;13.938;2024-01-11T00:36:38;100951.63;;;-10.39;100.00
63903;BME280;50072;50.678;13.938;2024-01-11T00:39:04;100957.97;;;-10.36;100.00
63903;BME280;50072;50.678;13.938;2024-01-11T00:41:38;100957.47;;;-10.42;100.00
63903;BME280;50072;50.678;13.938;2024-01-11T00:44:05;100961.81;;;-10.53;100.00
63903;BME280;50072;50.678;13.938;2024-01-11T00:46:40;100952.00;;;-10.57;100.00
63903;BME280;50072;50.678;13.938;2024-01-11T00:49:08;100953.13;;;-10.53;100.00
63903;BME280;50072;50.678;13.938;2024-01-11T00:51:38;100961.13;;;-10.50;100.00
63903;BME280;50072;50.678;13.938;2024-01-11T00:54:06;100962.56;;;-10.54;100.00
63903;BME280;50072;50.678;13.938;2024-01-11T00:56:38;100938.19;;;-10.68;100.00
63903;BME280;50072;50.678;13.938;2024-01-11T00:59:05;100953.25;;;-10.52;100.00
63903;BME280;50072;50.678;13.938;2024-01-11T01:01:36;100942.13;;;-10.51;100.00
63903;BME280;50072;50.678;13.938;2024-01-11T01:04:08;100933.47;;;-10.51;100.00
63903;BME280;50072;50.678;13.938;2024-01-11T01:06:41;100947.94;;;-10.53;100.00
63903;BME280;50072;50.678;13.938;2024-01-11T01:09:08;100936.06;;;-10.51;100.00
63903;BME280;50072;50.678;13.938;2024-01-11T01:11:36;100935.81;;;-10.54;100.00
63903;BME280;50072;50.678;13.938;2024-01-11T01:14:08;100939.53;;;-10.51;100.00
63903;BME280;50072;50.678;13.938;2024-01-11T01:16:39;100939.59;;;-10.61;100.00
63903;BME280;50072;50.678;13.938;2024-01-11T01:19:08;100936.78;;;-10.74;100.00
63903;BME280;50072;50.678;13.938;2024-01-11T01:21:35;100926.38;;;-10.86;100.00
63903;BME280;50072;50.678;13.938;2024-01-11T01:24:06;100924.53;;;-10.77;100.00
63903;BME280;50072;50.678;13.938;2024-01-11T01:26:35;100927.84;;;-10.68;100.00
63903;BME280;50072;50.678;13.938;2024-01-11T01:29:05;100924.78;;;-10.74;100.00
63903;BME280;50072;50.678;13.938;2024-01-11T01:31:38;100916.59;;;-10.68;100.00
63903;BME280;50072;50.678;13.938;2024-01-11T01:34:08;100932.72;;;-10.61;100.00
63903;BME280;50072;50.678;13.938;2024-01-11T01:36:34;100928.59;;;-10.59;100.00
63903;BME280;50072;50.678;13.938;2024-01-11T01:39:05;100914.59;;;-10.61;100.00
63903;BME280;50072;50.678;13.938;2024-01-11T01:41:36;100920.28;;;-10.54;100.00
63903;BME280;50072;50.678;13.938;2024-01-11T01:44:08;100911.84;;;-10.52;100.00
63903;BME280;50072;50.678;13.938;2024-01-11T01:46:35;100908.13;;;-10.55;100.00
63903;BME280;50072;50.678;13.938;2024-01-11T01:49:02;100900.44;;;-10.66;100.00
63903;BME280;50072;50.678;13.938;2024-01-11T01:51:38;100907.16;;;-10.68;100.00
63903;BME280;50072;50.678;13.938;2024-01-11T01:54:08;100913.22;;;-10.67;100.00
63903;BME280;50072;50.678;13.938;2024-01-11T01:56:36;100914.19;;;-10.77;100.00
63903;BME280;50072;50.678;13.938;2024-01-11T01:59:09;100912.72;;;-10.73;100.00
63903;BME280;50072;50.678;13.938;2024-01-11T02:01:38;100905.88;;;-10.73;100.00
63903;BME280;50072;50.678;13.938;2024-01-11T02:04:05;100905.72;;;-10.64;100.00
63903;BME280;50072;50.678;13.938;2024-01-11T02:06:38;100901.50;;;-10.74;100.00
63903;BME280;50072;50.678;13.938;2024-01-11T02:09:10;100909.78;;;-10.78;100.00
63903;BME280;50072;50.678;13.938;2024-01-11T02:11:38;100894.84;;;-10.93;100.00
63903;BME280;50072;50.678;13.938;2024-01-11T02:14:05;100909.53;;;-10.81;100.00
63903;BME280;50072;50.678;13.938;2024-01-11T02:16:38;100908.03;;;-10.89;100.00
63903;BME280;50072;50.678;13.938;2024-01-11T02:19:12;100933.41;;;-10.73;100.00
63903;BME280;50072;50.678;13.938;2024-01-11T02:21:41;100928.91;;;-10.76;100.00
63903;BME280;50072;50.678;13.938;2024-01-11T02:24:08;100905.91;;;-10.83;100.00
63903;BME280;50072;50.678;13.938;2024-01-11T02:26:36;100916.38;;;-10.82;100.00
63903;BME280;50072;50.678;13.938;2024-01-11T02:29:08;100916.13;;;-10.85;100.00
63903;BME280;50072;50.678;13.938;2024-01-11T02:31:35;100911.09;;;-10.83;100.00
63903;BME280;50072;50.678;13.938;2024-01-11T02:34:05;100908.38;;;-10.85;100.00
63903;BME280;50072;50.678;13.938;2024-01-11T02:36:30;100916.38;;;-10.82;100.00
63903;BME280;50072;50.678;13.938;2024-01-11T02:39:03;100912.94;;;-10.93;100.00
63903;BME280;50072;50.678;13.938;2024-01-11T02:41:35;100925.63;;;-10.96;100.00
63903;BME280;50072;50.678;13.938;2024-01-11T02:44:05;100916.44;;;-10.92;100.00
63903;BME280;50072;50.678;13.938;2024-01-11T02:46:38;100919.59;;;-10.74;100.00
63903;BME280;50072;50.678;13.938;2024-01-11T02:49:05;100904.69;;;-10.66;100.00
63903;BME280;50072;50.678;13.938;2024-01-11T02:51:36;100908.97;;;-10.67;100.00
63903;BME280;50072;50.678;13.938;2024-01-11T02:54:09;100911.00;;;-10.63;100.00
63903;BME280;50072;50.678;13.938;2024-01-11T02:56:40;100902.03;;;-10.56;100.00
63903;BME280;50072;50.678;13.938;2024-01-11T02:59:08;100921.00;;;-10.45;100.00
63903;BME280;50072;50.678;13.938;2024-01-11T03:01:39;100915.31;;;-10.29;100.00
63903;BME280;50072;50.678;13.938;2024-01-11T03:04:06;100900.53;;;-10.30;100.00
63903;BME280;50072;50.678;13.938;2024-01-11T03:06:35;100918.19;;;-10.14;100.00
63903;BME280;50072;50.678;13.938;2024-01-11T03:09:04;100919.50;;;-10.19;100.00
63903;BME280;50072;50.678;13.938;2024-01-11T03:11:35;100923.81;;;-10.20;100.00
63903;BME280;50072;50.678;13.938;2024-01-11T03:14:08;100908.91;;;-10.34;100.00
63903;BME280;50072;50.678;13.938;2024-01-11T03:16:35;100909.47;;;-10.38;100.00
63903;BME280;50072;50.678;13.938;2024-01-11T03:19:08;100914.09;;;-10.23;100.00
63903;BME280;50072;50.678;13.938;2024-01-11T03:21:42;100908.38;;;-10.18;100.00
63903;BME280;50072;50.678;13.938;2024-01-11T03:24:31;100902.44;;;-10.17;100.00
63903;BME280;50072;50.678;13.938;2024-01-11T03:27:10;100897.00;;;-10.20;100.00
63903;BME280;50072;50.678;13.938;2024-01-11T03:29:38;100908.97;;;-10.11;100.00
63903;BME280;50072;50.678;13.938;2024-01-11T03:32:04;100920.34;;;-10.09;100.00
63903;BME280;50072;50.678;13.938;2024-01-11T03:34:38;100920.47;;;-10.07;100.00
63903;BME280;50072;50.678;13.938;2024-01-11T03:37:05;100914.34;;;-10.19;100.00
63903;BME280;50072;50.678;13.938;2024-01-11T03:39:35;100915.00;;;-10.22;100.00
63903;BME280;50072;50.678;13.938;2024-01-11T03:42:05;100900.72;;;-10.51;100.00
63903;BME280;50072;50.678;13.938;2024-01-11T03:44:38;100894.56;;;-10.63;100.00
63903;BME280;50072;50.678;13.938;2024-01-11T03:47:05;100894.56;;;-10.63;100.00
63903;BME280;50072;50.678;13.938;2024-01-11T03:49:38;100904.97;;;-10.73;100.00
63903;BME280;50072;50.678;13.938;2024-01-11T03:52:10;100903.34;;;-10.83;100.00
63903;BME280;50072;50.678;13.938;2024-01-11T03:54:38;100893.09;;;-10.82;100.00
63903;BME280;50072;50.678;13.938;2024-01-11T03:57:09;100898.38;;;-10.70;100.00
63903;BME280;50072;50.678;13.938;2024-01-11T03:59:38;100896.69;;;-10.69;100.00
63903;BME280;50072;50.678;13.938;2024-01-11T04:02:05;100901.19;;;-10.67;100.00
63903;BME280;50072;50.678;13.938;2024-01-11T04:04:35;100895.97;;;-10.56;100.00
63903;BME280;50072;50.678;13.938;2024-01-11T04:07:08;100886.94;;;-10.39;100.00
63903;BME280;50072;50.678;13.938;2024-01-11T04:09:38;100876.06;;;-10.35;100.00
63903;BME280;50072;50.678;13.938;2024-01-11T04:12:08;100884.00;;;-10.44;100.00
63903;BME280;50072;50.678;13.938;2024-01-11T04:14:39;100882.31;;;-10.32;100.00
63903;BME280;50072;50.678;13.938;2024-01-11T04:17:08;100894.94;;;-10.25;100.00
63903;BME280;50072;50.678;13.938;2024-01-11T04:19:40;100897.91;;;-10.20;100.00
63903;BME280;50072;50.678;13.938;2024-01-11T04:22:08;100893.44;;;-10.11;100.00
63903;BME280;50072;50.678;13.938;2024-01-11T04:24:35;100883.28;;;-10.19;100.00
63903;BME280;50072;50.678;13.938;2024-01-11T04:27:08;100881.53;;;-10.09;100.00
63903;BME280;50072;50.678;13.938;2024-01-11T04:29:35;100861.81;;;-10.07;100.00
63903;BME280;50072;50.678;13.938;2024-01-11T04:32:07;100860.75;;;-10.20;100.00
63903;BME280;50072;50.678;13.938;2024-01-11T04:34:35;100870.31;;;-10.19;100.00
63903;BME280;50072;50.678;13.938;2024-01-11T04:37:06;100877.63;;;-10.26;100.00
63903;BME280;50072;50.678;13.938;2024-01-11T04:39:35;100865.47;;;-10.27;100.00
63903;BME280;50072;50.678;13.938;2024-01-11T04:42:09;100863.00;;;-10.37;100.00
63903;BME280;50072;50.678;13.938;2024-01-11T04:44:36;100869.91;;;-10.48;100.00
63903;BME280;50072;50.678;13.938;2024-01-11T04:47:04;100877.47;;;-10.39;100.00
63903;BME280;50072;50.678;13.938;2024-01-11T04:49:35;100859.63;;;-10.36;100.00
63903;BME280;50072;50.678;13.938;2024-01-11T04:52:04;100866.91;;;-10.30;100.00
63903;BME280;50072;50.678;13.938;2024-01-11T04:54:36;100860.06;;;-10.30;100.00
63903;BME280;50072;50.678;13.938;2024-01-11T04:57:07;100866.78;;;-10.32;100.00
63903;BME280;50072;50.678;13.938;2024-01-11T04:59:38;100855.53;;;-10.44;100.00
63903;BME280;50072;50.678;13.938;2024-01-11T05:02:04;100862.88;;;-10.38;100.00
63903;BME280;50072;50.678;13.938;2024-01-11T05:04:30;100866.13;;;-10.41;100.00
63903;BME280;50072;50.678;13.938;2024-01-11T05:06:56;100866.31;;;-10.50;100.00
63903;BME280;50072;50.678;13.938;2024-01-11T05:09:22;100861.31;;;-10.59;100.00
63903;BME280;50072;50.678;13.938;2024-01-11T05:11:48;100855.19;;;-10.71;100.00
63903;BME280;50072;50.678;13.938;2024-01-11T05:14:15;100871.97;;;-10.66;100.00
63903;BME280;50072;50.678;13.938;2024-01-11T05:16:41;100897.97;;;-10.64;100.00
63903;BME280;50072;50.678;13.938;2024-01-11T05:19:08;100904.03;;;-10.64;100.00
63903;BME280;50072;50.678;13.938;2024-01-11T05:21:34;100885.47;;;-10.80;100.00
63903;BME280;50072;50.678;13.938;2024-01-11T05:24:01;100884.94;;;-10.76;100.00
63903;BME280;50072;50.678;13.938;2024-01-11T05:26:27;100893.97;;;-10.71;100.00
63903;BME280;50072;50.678;13.938;2024-01-11T05:28:54;100894.97;;;-10.69;100.00
63903;BME280;50072;50.678;13.938;2024-01-11T05:31:21;100902.63;;;-10.70;100.00
63903;BME280;50072;50.678;13.938;2024-01-11T05:33:48;100900.50;;;-10.86;100.00
63903;BME280;50072;50.678;13.938;2024-01-11T05:36:14;100908.25;;;-10.86;100.00
63903;BME280;50072;50.678;13.938;2024-01-11T05:38:42;100916.56;;;-10.90;100.00
63903;BME280;50072;50.678;13.938;2024-01-11T05:41:08;100905.59;;;-10.98;100.00
63903;BME280;50072;50.678;13.938;2024-01-11T05:43:34;100917.06;;;-10.95;100.00
63903;BME280;50072;50.678;13.938;2024-01-11T05:46:03;100911.50;;;-10.89;100.00
63903;BME280;50072;50.678;13.938;2024-01-11T05:48:29;100909.44;;;-10.93;100.00
63903;BME280;50072;50.678;13.938;2024-01-11T05:50:54;100911.75;;;-10.86;100.00
63903;BME280;50072;50.678;13.938;2024-01-11T05:53:20;100896.63;;;-10.91;100.00
63903;BME280;50072;50.678;13.938;2024-01-11T05:55:48;100898.84;;;-10.96;100.00
63903;BME280;50072;50.678;13.938;2024-01-11T05:58:14;100904.38;;;-10.91;100.00
63903;BME280;50072;50.678;13.938;2024-01-11T06:00:39;100912.06;;;-10.71;100.00
63903;BME280;50072;50.678;13.938;2024-01-11T06:03:08;100898.19;;;-10.61;100.00
63903;BME280;50072;50.678;13.938;2024-01-11T06:05:38;100890.38;;;-10.51;100.00
63903;BME280;50072;50.678;13.938;2024-01-11T06:08:05;100891.75;;;-10.44;100.00
63903;BME280;50072;50.678;13.938;2024-01-11T06:10:31;100896.28;;;-10.30;100.00
63903;BME280;50072;50.678;13.938;2024-01-11T06:13:08;100888.22;;;-10.23;100.00
63903;BME280;50072;50.678;13.938;2024-01-11T06:15:35;100884.84;;;-10.21;100.00
63903;BME280;50072;50.678;13.938;2024-01-11T06:18:01;100894.59;;;-10.07;100.00
63903;BME280;50072;50.678;13.938;2024-01-11T06:20:38;100904.63;;;-10.00;100.00
63903;BME280;50072;50.678;13.938;2024-01-11T06:23:08;100920.63;;;-9.94;100.00
63903;BME280;50072;50.678;13.938;2024-01-11T06:25:35;100910.38;;;-9.92;100.00
63903;BME280;50072;50.678;13.938;2024-01-11T06:28:10;100924.09;;;-9.93;100.00
63903;BME280;50072;50.678;13.938;2024-01-11T06:30:38;100922.75;;;-10.00;100.00
63903;BME280;50072;50.678;13.938;2024-01-11T06:33:10;100909.63;;;-10.13;100.00
63903;BME280;50072;50.678;13.938;2024-01-11T06:35:35;100921.44;;;-10.17;100.00
63903;BME280;50072;50.678;13.938;2024-01-11T06:38:07;100920.16;;;-10.22;100.00
63903;BME280;50072;50.678;13.938;2024-01-11T06:40:39;100925.78;;;-10.28;100.00
63903;BME280;50072;50.678;13.938;2024-01-11T06:43:05;100929.16;;;-10.29;100.00
63903;BME280;50072;50.678;13.938;2024-01-11T06:45:36;100913.97;;;-10.36;100.00
63903;BME280;50072;50.678;13.938;2024-01-11T06:48:10;100922.75;;;-10.34;100.00
63903;BME280;50072;50.678;13.938;2024-01-11T06:50:38;100918.88;;;-10.39;100.00
63903;BME280;50072;50.678;13.938;2024-01-11T06:53:05;100920.16;;;-10.34;100.00
63903;BME280;50072;50.678;13.938;2024-01-11T06:55:33;100915.41;;;-10.28;100.00
63903;BME280;50072;50.678;13.938;2024-01-11T06:58:08;100926.00;;;-10.25;100.00
63903;BME280;50072;50.678;13.938;2024-01-11T07:00:34;100917.22;;;-10.27;100.00
63903;BME280;50072;50.678;13.938;2024-01-11T07:02:59;100903.00;;;-10.32;100.00
63903;BME280;50072;50.678;13.938;2024-01-11T07:05:25;100893.13;;;-10.37;100.00
63903;BME280;50072;50.678;13.938;2024-01-11T07:07:51;100888.78;;;-10.49;100.00
63903;BME280;50072;50.678;13.938;2024-01-11T07:10:17;100910.19;;;-10.51;100.00
63903;BME280;50072;50.678;13.938;2024-01-11T07:12:42;100920.94;;;-10.57;100.00
63903;BME280;50072;50.678;13.938;2024-01-11T07:15:09;100922.06;;;-10.53;100.00
63903;BME280;50072;50.678;13.938;2024-01-11T07:17:34;100877.50;;;-10.61;100.00
63903;BME280;50072;50.678;13.938;2024-01-11T07:20:01;100878.22;;;-10.52;100.00
63903;BME280;50072;50.678;13.938;2024-01-11T07:22:29;100876.56;;;-10.62;100.00
63903;BME280;50072;50.678;13.938;2024-01-11T07:24:55;100879.78;;;-10.54;100.00
63903;BME280;50072;50.678;13.938;2024-01-11T07:27:21;100872.06;;;-10.42;100.00
63903;BME280;50072;50.678;13.938;2024-01-11T07:29:47;100880.75;;;-10.30;100.00
63903;BME280;50072;50.678;13.938;2024-01-11T07:32:12;100885.78;;;-10.09;100.00
63903;BME280;50072;50.678;13.938;2024-01-11T07:34:39;100884.69;;;-10.01;100.00
63903;BME280;50072;50.678;13.938;2024-01-11T07:37:05;100883.38;;;-9.84;100.00
63903;BME280;50072;50.678;13.938;2024-01-11T07:39:31;100871.81;;;-9.77;100.00
63903;BME280;50072;50.678;13.938;2024-01-11T07:41:58;100854.13;;;-9.71;100.00
63903;BME280;50072;50.678;13.938;2024-01-11T07:44:25;100880.75;;;-9.62;100.00
63903;BME280;50072;50.678;13.938;2024-01-11T07:46:52;100883.78;;;-9.56;100.00
63903;BME280;50072;50.678;13.938;2024-01-11T07:49:19;100881.97;;;-9.57;100.00
63903;BME280;50072;50.678;13.938;2024-01-11T07:51:46;100878.03;;;-9.28;100.00
63903;BME280;50072;50.678;13.938;2024-01-11T07:54:13;100873.75;;;-9.15;100.00
63903;BME280;50072;50.678;13.938;2024-01-11T07:56:39;100860.88;;;-9.02;100.00
63903;BME280;50072;50.678;13.938;2024-01-11T07:59:06;100833.91;;;-8.92;100.00
63903;BME280;50072;50.678;13.938;2024-01-11T08:01:33;100843.81;;;-8.87;100.00
63903;BME280;50072;50.678;13.938;2024-01-11T08:04:01;100864.00;;;-8.82;100.00
63903;BME280;50072;50.678;13.938;2024-01-11T08:06:30;100877.97;;;-8.69;100.00
63903;BME280;50072;50.678;13.938;2024-01-11T08:08:59;100875.03;;;-8.61;100.00
63903;BME280;50072;50.678;13.938;2024-01-11T08:11:26;100852.81;;;-8.58;100.00
63903;BME280;50072;50.678;13.938;2024-01-11T08:13:52;100853.03;;;-8.41;100.00
63903;BME280;50072;50.678;13.938;2024-01-11T08:16:22;100849.38;;;-8.32;100.00
63903;BME280;50072;50.678;13.938;2024-01-11T08:18:50;100845.53;;;-8.25;100.00
63903;BME280;50072;50.678;13.938;2024-01-11T08:21:16;100846.63;;;-8.21;100.00
63903;BME280;50072;50.678;13.938;2024-01-11T08:23:42;100843.31;;;-8.32;100.00
63903;BME280;50072;50.678;13.938;2024-01-11T08:26:15;100850.75;;;-8.37;100.00
63903;BME280;50072;50.678;13.938;2024-01-11T08:28:42;100856.25;;;-8.45;100.00
63903;BME280;50072;50.678;13.938;2024-01-11T08:31:08;100880.38;;;-8.46;100.00
63903;BME280;50072;50.678;13.938;2024-01-11T08:33:34;100872.81;;;-8.43;100.00
63903;BME280;50072;50.678;13.938;2024-01-11T08:36:04;100872.00;;;-8.42;100.00
63903;BME280;50072;50.678;13.938;2024-01-11T08:38:32;100876.97;;;-8.34;100.00
63903;BME280;50072;50.678;13.938;2024-01-11T08:40:59;100870.47;;;-8.27;100.00
63903;BME280;50072;50.678;13.938;2024-01-11T08:43:29;100867.56;;;-8.32;100.00
63903;BME280;50072;50.678;13.938;2024-01-11T08:45:56;100851.88;;;-8.33;100.00
63903;BME280;50072;50.678;13.938;2024-01-11T08:48:25;100852.50;;;-8.24;100.00
63903;BME280;50072;50.678;13.938;2024-01-11T08:50:51;100863.94;;;-8.08;100.00
63903;BME280;50072;50.678;13.938;2024-01-11T08:53:18;100862.84;;;-8.12;100.00
63903;BME280;50072;50.678;13.938;2024-01-11T08:55:44;100865.66;;;-8.09;100.00
63903;BME280;50072;50.678;13.938;2024-01-11T08:58:11;100863.47;;;-8.03;100.00
63903;BME280;50072;50.678;13.938;2024-01-11T09:00:38;100857.78;;;-7.97;100.00
63903;BME280;50072;50.678;13.938;2024-01-11T09:03:04;100851.84;;;-7.83;100.00
63903;BME280;50072;50.678;13.938;2024-01-11T09:05:30;100866.59;;;-7.56;100.00
63903;BME280;50072;50.678;13.938;2024-01-11T09:07:59;100864.13;;;-7.28;100.00
63903;BME280;50072;50.678;13.938;2024-01-11T09:10:26;100855.69;;;-6.97;100.00
63903;BME280;50072;50.678;13.938;2024-01-11T09:12:53;100863.16;;;-6.62;100.00
63903;BME280;50072;50.678;13.938;2024-01-11T09:15:21;100866.78;;;-6.31;100.00
63903;BME280;50072;50.678;13.938;2024-01-11T09:17:49;100841.28;;;-6.22;100.00
63903;BME280;50072;50.678;13.938;2024-01-11T09:20:17;100852.22;;;-5.99;100.00
63903;BME280;50072;50.678;13.938;2024-01-11T09:22:46;100856.81;;;-5.65;100.00
63903;BME280;50072;50.678;13.938;2024-01-11T09:25:13;100855.91;;;-5.51;100.00
63903;BME280;50072;50.678;13.938;2024-01-11T09:27:39;100841.75;;;-5.55;100.00
63903;BME280;50072;50.678;13.938;2024-01-11T09:30:06;100860.22;;;-5.51;100.00
63903;BME280;50072;50.678;13.938;2024-01-11T09:32:33;100853.91;;;-5.55;100.00
63903;BME280;50072;50.678;13.938;2024-01-11T09:34:59;100839.25;;;-5.38;100.00
63903;BME280;50072;50.678;13.938;2024-01-11T09:37:27;100850.31;;;-5.27;100.00
63903;BME280;50072;50.678;13.938;2024-01-11T09:39:54;100853.84;;;-4.95;100.00
63903;BME280;50072;50.678;13.938;2024-01-11T09:42:20;100858.19;;;-4.48;100.00
63903;BME280;50072;50.678;13.938;2024-01-11T09:44:48;100846.69;;;-3.86;100.00
63903;BME280;50072;50.678;13.938;2024-01-11T09:47:16;100834.75;;;-3.46;100.00
63903;BME280;50072;50.678;13.938;2024-01-11T09:49:44;100842.47;;;-3.13;100.00
63903;BME280;50072;50.678;13.938;2024-01-11T09:52:13;100830.88;;;-2.63;100.00
63903;BME280;50072;50.678;13.938;2024-01-11T09:54:40;100834.31;;;-2.46;100.00
63903;BME280;50072;50.678;13.938;2024-01-11T09:57:09;100832.63;;;-2.63;87.38
63903;BME280;50072;50.678;13.938;2024-01-11T09:59:36;100839.13;;;-2.35;84.35
63903;BME280;50072;50.678;13.938;2024-01-11T10:02:03;100831.66;;;-2.08;82.27
63903;BME280;50072;50.678;13.938;2024-01-11T10:04:29;100822.34;;;-1.80;82.32
63903;BME280;50072;50.678;13.938;2024-01-11T10:06:57;100801.63;;;-1.53;80.29
63903;BME280;50072;50.678;13.938;2024-01-11T10:09:24;100822.75;;;-1.08;79.48
63903;BME280;50072;50.678;13.938;2024-01-11T10:11:52;100820.81;;;-0.68;77.44
63903;BME280;50072;50.678;13.938;2024-01-11T10:14:21;100834.78;;;-0.92;77.62
63903;BME280;50072;50.678;13.938;2024-01-11T10:16:48;100838.13;;;-1.17;76.87
63903;BME280;50072;50.678;13.938;2024-01-11T10:19:15;100837.56;;;-1.31;78.28
63903;BME280;50072;50.678;13.938;2024-01-11T10:21:45;100826.16;;;-1.31;78.27
63903;BME280;50072;50.678;13.938;2024-01-11T10:24:20;100826.41;;;-1.67;78.36
63903;BME280;50072;50.678;13.938;2024-01-11T10:26:46;100833.38;;;-1.68;79.79
63903;BME280;50072;50.678;13.938;2024-01-11T10:29:12;100814.72;;;-1.95;80.38
63903;BME280;50072;50.678;13.938;2024-01-11T10:31:39;100809.97;;;-2.43;81.79
63903;BME280;50072;50.678;13.938;2024-01-11T10:34:05;100812.25;;;-2.12;83.35
63903;BME280;50072;50.678;13.938;2024-01-11T10:36:33;100807.69;;;-2.16;82.67
63903;BME280;50072;50.678;13.938;2024-01-11T10:39:09;100805.94;;;-1.96;83.46
63903;BME280;50072;50.678;13.938;2024-01-11T10:41:40;100793.94;;;-1.91;82.69
63903;BME280;50072;50.678;13.938;2024-01-11T10:47:09;100810.84;;;-1.20;81.07
63903;BME280;50072;50.678;13.938;2024-01-11T10:49:39;100788.19;;;-0.73;78.92
63903;BME280;50072;50.678;13.938;2024-01-11T10:52:11;100783.03;;;-0.70;77.97
63903;BME280;50072;50.678;13.938;2024-01-11T10:54:39;100777.50;;;-0.78;77.73
63903;BME280;50072;50.678;13.938;2024-01-11T10:57:08;100784.63;;;-0.75;76.87
63903;BME280;50072;50.678;13.938;2024-01-11T10:59:38;100778.47;;;-0.52;76.86
63903;BME280;50072;50.678;13.938;2024-01-11T11:02:05;100782.97;;;-0.49;77.22
63903;BME280;50072;50.678;13.938;2024-01-11T11:04:45;100767.84;;;-0.55;77.02
63903;BME280;50072;50.678;13.938;2024-01-11T11:07:13;100776.94;;;-0.46;77.79
63903;BME280;50072;50.678;13.938;2024-01-11T11:09:44;100764.97;;;-0.38;77.36
63903;BME280;50072;50.678;13.938;2024-01-11T11:12:13;100759.94;;;-0.32;75.97
63903;BME280;50072;50.678;13.938;2024-01-11T11:14:51;100750.97;;;-0.61;75.75
63903;BME280;50072;50.678;13.938;2024-01-11T11:17:38;100758.06;;;-0.59;75.96
63903;BME280;50072;50.678;13.938;2024-01-11T11:20:09;100744.81;;;-0.13;75.52
63903;BME280;50072;50.678;13.938;2024-01-11T11:22:40;100734.66;;;0.76;72.77
63903;BME280;50072;50.678;13.938;2024-01-11T11:25:39;100734.25;;;1.82;68.62
63903;BME280;50072;50.678;13.938;2024-01-11T11:28:08;100727.69;;;1.68;67.51
63903;BME280;50072;50.678;13.938;2024-01-11T11:31:06;100718.06;;;2.02;66.11
63903;BME280;50072;50.678;13.938;2024-01-11T11:33:38;100712.31;;;2.53;66.09
63903;BME280;50072;50.678;13.938;2024-01-11T11:36:03;100713.59;;;3.09;63.66
63903;BME280;50072;50.678;13.938;2024-01-11T11:38:36;100728.41;;;2.63;63.83
63903;BME280;50072;50.678;13.938;2024-01-11T11:41:06;100724.78;;;1.90;64.50
63903;BME280;50072;50.678;13.938;2024-01-11T11:43:35;100712.91;;;1.12;64.16
63903;BME280;50072;50.678;13.938;2024-01-11T11:46:08;100714.88;;;0.91;66.86
63903;BME280;50072;50.678;13.938;2024-01-11T11:51:16;100692.53;;;-0.04;70.33
63903;BME280;50072;50.678;13.938;2024-01-11T11:53:46;100672.34;;;-0.04;72.36
63903;BME280;50072;50.678;13.938;2024-01-11T11:59:11;100650.34;;;-0.31;70.97
63903;BME280;50072;50.678;13.938;2024-01-11T12:01:38;100659.31;;;-0.50;71.36
63903;BME280;50072;50.678;13.938;2024-01-11T12:04:08;100659.34;;;-0.75;72.62
63903;BME280;50072;50.678;13.938;2024-01-11T12:06:38;100666.69;;;-0.89;73.43
63903;BME280;50072;50.678;13.938;2024-01-11T12:09:06;100662.25;;;-0.91;73.79
63903;BME280;50072;50.678;13.938;2024-01-11T12:11:37;100638.41;;;-0.72;74.01
63903;BME280;50072;50.678;13.938;2024-01-11T12:14:05;100624.88;;;-0.58;74.88
63903;BME280;50072;50.678;13.938;2024-01-11T12:16:38;100638.16;;;-0.29;75.14
63903;BME280;50072;50.678;13.938;2024-01-11T12:19:06;100643.75;;;-0.44;74.22
63903;BME280;50072;50.678;13.938;2024-01-11T12:21:38;100633.56;;;-0.35;73.22
63903;BME280;50072;50.678;13.938;2024-01-11T12:24:05;100626.94;;;-0.24;72.80
63903;BME280;50072;50.678;13.938;2024-01-11T12:26:38;100648.41;;;-0.11;73.23
63903;BME280;50072;50.678;13.938;2024-01-11T12:29:05;100655.53;;;-0.07;72.76
63903;BME280;50072;50.678;13.938;2024-01-11T12:31:37;100647.72;;;-0.06;71.18
63903;BME280;50072;50.678;13.938;2024-01-11T12:34:08;100645.63;;;0.11;71.17
63903;BME280;50072;50.678;13.938;2024-01-11T12:36:35;100640.56;;;0.45;70.26
63903;BME280;50072;50.678;13.938;2024-01-11T12:39:03;100625.13;;;0.56;68.49
63903;BME280;50072;50.678;13.938;2024-01-11T12:41:38;100618.03;;;0.83;67.79
63903;BME280;50072;50.678;13.938;2024-01-11T12:44:10;100621.28;;;1.05;66.40
63903;BME280;50072;50.678;13.938;2024-01-11T12:46:39;100617.41;;;0.92;66.07